createdAt,value
2022-08-22T00:01:12.568Z,4.50
2022-08-22T00:02:45.054Z,1.90
2022-08-22T00:03:08.059Z,3.42
2022-08-22T00:04:03.467Z,4.38
2022-08-22T00:06:49.548Z,3.70
2022-08-22T00:09:55.586Z,3.88
2022-08-22T00:12:32.332Z,3.95
2022-08-22T00:15:03.640Z,3.90
2022-08-22T00:17:52.976Z,5.03
2022-08-22T00:20:35.900Z,4.63
2022-08-22T00:23:22.533Z,4.45
2022-08-22T00:26:03.815Z,4.15
2022-08-22T00:28:48.228Z,4.40
2022-08-22T00:31:40.376Z,4.20
2022-08-22T00:34:26.478Z,4.47
2022-08-22T00:37:08.241Z,4.40
2022-08-22T00:39:52.750Z,4.57
2022-08-22T00:43:13.063Z,4.05
2022-08-22T00:46:25.084Z,4.45
2022-08-22T00:49:29.675Z,3.72
2022-08-22T00:52:22.899Z,4.15
2022-08-22T00:55:17.237Z,4.07
2022-08-22T00:58:16.128Z,4.18
2022-08-22T01:00:52.289Z,3.67
2022-08-22T01:04:25.938Z,4.20
2022-08-22T01:07:24.460Z,4.53
2022-08-22T01:10:30.414Z,4.65
2022-08-22T01:14:09.962Z,4.20
2022-08-22T01:16:56.036Z,4.18
2022-08-22T01:19:50.000Z,4.10
2022-08-22T01:23:10.117Z,4.50
2022-08-22T01:26:19.532Z,3.95
2022-08-22T01:29:28.579Z,3.90
2022-08-22T01:32:56.850Z,4.78
2022-08-22T01:36:40.698Z,3.97
2022-08-22T01:39:42.010Z,3.85
2022-08-22T01:42:47.891Z,3.95
2022-08-22T01:45:14.637Z,3.95
2022-08-22T01:47:57.403Z,4.28
2022-08-22T01:50:35.496Z,4.15
2022-08-22T01:53:17.163Z,4.30
2022-08-22T01:56:06.765Z,4.20
2022-08-22T01:58:43.172Z,4.22
2022-08-22T02:01:46.045Z,4.18
2022-08-22T02:04:29.622Z,4.30
2022-08-22T02:07:29.147Z,4.50
2022-08-22T02:10:12.671Z,4.65
2022-08-22T02:12:42.509Z,4.05
2022-08-22T02:15:26.382Z,3.70
2022-08-22T02:18:05.029Z,4.55
2022-08-22T02:20:39.233Z,4.00
2022-08-22T02:23:36.992Z,4.47
2022-08-22T02:26:13.225Z,4.00
2022-08-22T02:29:10.021Z,4.38
2022-08-22T02:31:56.111Z,4.22
2022-08-22T02:35:16.478Z,4.05
2022-08-22T02:38:29.162Z,4.05
2022-08-22T02:41:21.371Z,4.32
2022-08-22T02:43:59.512Z,4.68
2022-08-22T02:46:44.319Z,4.00
2022-08-22T02:49:48.344Z,4.28
2022-08-22T02:52:49.866Z,4.00
2022-08-22T02:55:31.516Z,4.35
2022-08-22T02:58:19.031Z,3.90
2022-08-22T03:00:52.625Z,4.28
2022-08-22T03:03:28.746Z,4.30
2022-08-22T03:06:26.651Z,3.50
2022-08-22T03:09:25.323Z,3.85
2022-08-22T03:13:01.989Z,4.35
2022-08-22T03:15:57.596Z,4.07
2022-08-22T03:18:53.453Z,4.50
2022-08-22T03:21:36.981Z,4.22
2022-08-22T03:24:31.508Z,3.72
2022-08-22T03:27:32.301Z,4.13
2022-08-22T03:30:17.613Z,3.75
2022-08-22T03:33:26.317Z,4.37
2022-08-22T03:36:16.506Z,4.03
2022-08-22T03:38:52.341Z,3.83
2022-08-22T03:41:46.811Z,3.80
2022-08-22T03:44:59.796Z,4.07
2022-08-22T03:47:45.488Z,4.22
2022-08-22T03:50:57.438Z,3.83
2022-08-22T03:53:51.688Z,4.00
2022-08-22T03:56:57.542Z,4.55
2022-08-22T04:00:36.441Z,4.78
2022-08-22T04:04:12.768Z,4.30
2022-08-22T04:07:31.513Z,3.72
2022-08-22T04:10:14.266Z,4.35
2022-08-22T04:13:27.626Z,4.35
2022-08-22T04:16:21.721Z,4.63
2022-08-22T04:19:38.682Z,3.80
2022-08-22T04:22:44.690Z,4.10
2022-08-22T04:25:43.369Z,4.15
2022-08-22T04:28:38.136Z,3.97
2022-08-22T04:31:27.838Z,4.25
2022-08-22T04:34:09.720Z,5.00
2022-08-22T04:36:52.364Z,4.50
2022-08-22T04:39:51.536Z,4.65
2022-08-22T04:42:39.515Z,4.78
2022-08-22T04:45:22.681Z,4.07
2022-08-22T04:47:56.452Z,4.43
2022-08-22T04:50:57.689Z,4.25
2022-08-22T04:54:06.520Z,4.43
2022-08-22T04:57:19.076Z,4.30
2022-08-22T04:59:47.286Z,4.30
2022-08-22T05:02:27.544Z,4.15
2022-08-22T05:05:05.459Z,4.05
2022-08-22T05:07:53.069Z,4.32
2022-08-22T05:10:27.045Z,4.15
2022-08-22T05:13:03.116Z,4.00
2022-08-22T05:15:37.969Z,4.85
2022-08-22T05:18:18.137Z,4.25
2022-08-22T05:20:49.755Z,4.43
2022-08-22T05:23:30.765Z,4.40
2022-08-22T05:26:04.036Z,4.53
2022-08-22T05:28:43.840Z,4.55
2022-08-22T05:31:24.035Z,4.13
2022-08-22T05:34:01.814Z,3.97
2022-08-22T05:36:41.768Z,3.55
2022-08-22T05:39:23.712Z,4.40
2022-08-22T05:41:56.814Z,5.53
2022-08-22T05:44:34.204Z,3.97
2022-08-22T05:47:21.148Z,3.80
2022-08-22T05:50:31.519Z,4.65
2022-08-22T05:53:27.571Z,5.13
2022-08-22T05:56:35.706Z,4.32
2022-08-22T05:59:20.594Z,3.95
2022-08-22T06:02:17.151Z,5.20
2022-08-22T06:04:54.680Z,4.40
2022-08-22T06:07:40.012Z,4.43
2022-08-22T06:10:17.910Z,4.95
2022-08-22T06:13:11.871Z,4.70
2022-08-22T06:15:50.064Z,4.95
2022-08-22T06:18:26.726Z,4.35
2022-08-22T06:21:02.807Z,4.80
2022-08-22T06:23:56.711Z,4.43
2022-08-22T06:26:29.204Z,4.57
2022-08-22T06:29:00.473Z,4.30
2022-08-22T06:31:36.490Z,4.55
2022-08-22T06:34:14.545Z,4.82
2022-08-22T06:36:48.625Z,5.20
2022-08-22T06:39:20.968Z,4.90
2022-08-22T06:41:57.056Z,5.45
2022-08-22T06:44:52.777Z,5.38
2022-08-22T06:47:32.958Z,5.63
2022-08-22T06:50:35.678Z,5.07
2022-08-22T06:53:12.730Z,4.70
2022-08-22T06:55:47.969Z,5.28
2022-08-22T06:58:26.745Z,5.43
2022-08-22T07:01:12.319Z,5.75
2022-08-22T07:03:52.710Z,5.43
2022-08-22T07:06:35.080Z,4.95
2022-08-22T07:09:06.251Z,4.50
2022-08-22T07:11:42.343Z,4.32
2022-08-22T07:14:15.728Z,4.90
2022-08-22T07:17:04.631Z,4.70
2022-08-22T07:19:45.635Z,4.90
2022-08-22T07:22:28.621Z,4.78
2022-08-22T07:25:08.978Z,4.50
2022-08-22T07:28:05.334Z,5.30
2022-08-22T07:30:57.968Z,5.22
2022-08-22T07:33:51.524Z,5.22
2022-08-22T07:36:42.914Z,5.22
2022-08-22T07:39:25.520Z,4.68
2022-08-22T07:42:07.140Z,4.65
2022-08-22T07:45:00.174Z,4.43
2022-08-22T07:47:52.689Z,4.60
2022-08-22T07:50:33.909Z,4.43
2022-08-22T07:53:30.189Z,4.85
2022-08-22T07:56:02.713Z,4.75
2022-08-22T07:58:39.399Z,5.63
2022-08-22T08:01:11.739Z,4.50
2022-08-22T08:03:41.729Z,4.45
2022-08-22T08:06:10.004Z,4.45
2022-08-22T08:08:44.169Z,4.30
2022-08-22T08:11:17.022Z,3.97
2022-08-22T08:13:51.460Z,4.50
2022-08-22T08:16:26.806Z,5.20
2022-08-22T08:18:59.911Z,4.13
2022-08-22T08:21:36.054Z,4.07
2022-08-22T08:24:08.686Z,4.78
2022-08-22T08:27:08.513Z,4.40
2022-08-22T08:29:45.617Z,3.70
2022-08-22T08:32:24.796Z,4.40
2022-08-22T08:34:52.806Z,4.18
2022-08-22T08:37:41.267Z,3.90
2022-08-22T08:40:31.695Z,4.25
2022-08-22T08:43:55.607Z,4.32
2022-08-22T08:46:55.861Z,2.78
2022-08-22T08:49:54.805Z,2.97
2022-08-22T08:52:52.983Z,2.70
2022-08-22T08:55:51.228Z,2.22
2022-08-22T08:58:43.709Z,2.60
2022-08-22T09:01:46.049Z,2.90
2022-08-22T09:04:30.617Z,2.60
2022-08-22T09:07:30.519Z,2.58
2022-08-22T09:10:32.758Z,2.42
2022-08-22T09:13:29.722Z,3.13
2022-08-22T09:16:38.310Z,2.28
2022-08-22T09:19:43.909Z,2.25
2022-08-22T09:22:50.649Z,2.33
2022-08-22T09:26:01.035Z,1.88
2022-08-22T09:29:04.579Z,2.65
2022-08-22T09:31:51.527Z,2.17
2022-08-22T09:35:08.438Z,2.53
2022-08-22T09:37:53.291Z,2.10
2022-08-22T09:40:36.997Z,2.22
2022-08-22T09:43:24.387Z,2.13
2022-08-22T09:46:16.428Z,2.53
2022-08-22T09:49:05.600Z,2.60
2022-08-22T09:52:33.177Z,1.95
2022-08-22T09:55:42.614Z,2.30
2022-08-22T09:59:09.877Z,2.00
2022-08-22T10:02:15.788Z,1.83
2022-08-22T10:05:41.080Z,1.60
2022-08-22T10:08:37.228Z,1.63
2022-08-22T10:11:59.126Z,1.77
2022-08-22T10:14:40.463Z,1.70
2022-08-22T10:17:41.076Z,1.35
2022-08-22T10:20:32.876Z,1.55
2022-08-22T10:23:21.241Z,1.60
2022-08-22T10:26:22.833Z,1.67
2022-08-22T10:29:49.379Z,1.45
2022-08-22T10:32:55.314Z,1.92
2022-08-22T10:35:34.019Z,1.70
2022-08-22T10:38:19.147Z,1.70
2022-08-22T10:41:09.467Z,1.98
2022-08-22T10:44:09.072Z,1.98
2022-08-22T10:46:51.497Z,2.13
2022-08-22T10:49:51.228Z,2.17
2022-08-22T10:53:16.040Z,2.35
2022-08-22T10:55:48.757Z,2.00
2022-08-22T10:58:27.004Z,1.65
2022-08-22T11:01:37.961Z,2.28
2022-08-22T11:04:28.232Z,2.08
2022-08-22T11:07:38.146Z,1.90
2022-08-22T11:10:34.897Z,1.83
2022-08-22T11:13:46.171Z,2.08
2022-08-22T11:16:42.151Z,1.65
2022-08-22T11:19:45.101Z,1.77
2022-08-22T11:22:39.968Z,1.45
2022-08-22T11:25:36.129Z,1.60
2022-08-22T11:28:45.178Z,1.35
2022-08-22T11:32:05.676Z,1.80
2022-08-22T11:35:04.369Z,1.85
2022-08-22T11:37:59.816Z,1.67
2022-08-22T11:40:48.313Z,1.50
2022-08-22T11:43:39.906Z,1.30
2022-08-22T11:46:30.754Z,1.60
2022-08-22T11:49:32.918Z,1.63
2022-08-22T11:52:19.654Z,1.45
2022-08-22T11:55:24.448Z,1.83
2022-08-22T11:58:06.524Z,1.88
2022-08-22T12:00:57.090Z,1.40
2022-08-22T12:03:55.663Z,1.45
2022-08-22T12:07:10.712Z,2.00
2022-08-22T12:10:13.476Z,1.50
2022-08-22T12:13:05.652Z,1.50
2022-08-22T12:15:47.590Z,1.75
2022-08-22T12:18:53.816Z,1.70
2022-08-22T12:22:01.661Z,1.90
2022-08-22T12:24:38.244Z,2.10
2022-08-22T12:27:35.069Z,1.60
2022-08-22T12:30:33.253Z,2.00
2022-08-22T12:33:21.916Z,1.70
2022-08-22T12:36:45.311Z,1.70
2022-08-22T12:39:27.922Z,1.90
2022-08-22T12:42:15.831Z,1.42
2022-08-22T12:45:23.420Z,4.35
2022-08-22T12:48:41.411Z,1.92
2022-08-22T12:51:57.382Z,2.00
2022-08-22T12:55:04.904Z,1.73
2022-08-22T12:57:58.982Z,1.50
2022-08-22T13:00:40.248Z,1.30
2022-08-22T13:03:21.955Z,1.60
2022-08-22T13:05:56.851Z,1.42
2022-08-22T13:08:41.317Z,1.92
2022-08-22T13:11:22.565Z,2.00
2022-08-22T13:13:59.187Z,1.70
2022-08-22T13:16:49.085Z,1.40
2022-08-22T13:19:25.409Z,1.63
2022-08-22T13:22:11.549Z,1.50
2022-08-22T13:24:58.170Z,1.48
2022-08-22T13:27:35.203Z,1.60
2022-08-22T13:30:12.414Z,2.03
2022-08-22T13:33:01.837Z,3.38
2022-08-22T13:35:44.611Z,1.98
2022-08-22T13:38:33.628Z,1.80
2022-08-22T13:41:03.471Z,1.60
2022-08-22T13:44:13.788Z,1.50
2022-08-22T13:46:58.187Z,2.28
2022-08-22T13:49:41.114Z,1.77
2022-08-22T13:52:37.928Z,1.55
2022-08-22T13:55:29.408Z,1.83
2022-08-22T13:58:36.648Z,1.65
2022-08-22T14:01:50.065Z,1.60
2022-08-22T14:04:36.102Z,1.50
2022-08-22T14:07:06.219Z,1.80
2022-08-22T14:09:54.554Z,2.10
2022-08-22T14:12:49.877Z,1.40
2022-08-22T14:15:45.743Z,1.60
2022-08-22T14:18:47.393Z,1.70
2022-08-22T14:21:17.575Z,1.40
2022-08-22T14:23:46.720Z,1.60
2022-08-22T14:26:57.946Z,1.95
2022-08-22T14:29:33.815Z,1.55
2022-08-22T14:32:28.544Z,1.40
2022-08-22T14:35:35.215Z,1.38
2022-08-22T14:38:30.434Z,1.85
2022-08-22T14:41:55.501Z,1.80
2022-08-22T14:44:42.238Z,1.70
2022-08-22T14:47:40.376Z,1.75
2022-08-22T14:50:38.939Z,1.33
2022-08-22T14:53:22.186Z,1.35
2022-08-22T14:56:13.281Z,2.38
2022-08-22T14:58:56.113Z,1.92
2022-08-22T15:01:29.704Z,1.50
2022-08-22T15:04:10.618Z,1.60
2022-08-22T15:06:57.923Z,2.05
2022-08-22T15:09:43.327Z,1.70
2022-08-22T15:14:56.311Z,1.83
2022-08-22T15:17:51.015Z,1.60
2022-08-22T15:20:33.030Z,1.60
2022-08-22T15:23:20.499Z,1.85
2022-08-22T15:26:05.164Z,1.70
2022-08-22T15:28:52.380Z,1.70
2022-08-22T15:31:22.247Z,1.60
2022-08-22T15:33:50.930Z,1.42
2022-08-22T15:36:26.957Z,1.50
2022-08-22T15:38:56.999Z,1.67
2022-08-22T15:41:36.702Z,1.50
2022-08-22T15:44:32.453Z,1.80
2022-08-22T15:47:10.888Z,1.40
2022-08-22T15:49:54.493Z,1.20
2022-08-22T15:52:35.476Z,1.50
2022-08-22T15:55:16.509Z,1.33
2022-08-22T15:58:04.556Z,1.83
2022-08-22T16:00:35.899Z,1.15
2022-08-22T16:03:31.244Z,1.67
2022-08-22T16:06:01.273Z,1.20
2022-08-22T16:08:37.045Z,1.77
2022-08-22T16:11:03.815Z,1.60
2022-08-22T16:13:30.643Z,1.50
2022-08-22T16:16:02.588Z,1.42
2022-08-22T16:18:39.398Z,1.45
2022-08-22T16:21:32.470Z,1.30
2022-08-22T16:24:00.694Z,1.27
2022-08-22T16:26:30.548Z,1.75
2022-08-22T16:29:17.836Z,1.30
2022-08-22T16:31:47.780Z,1.30
2022-08-22T16:34:17.656Z,1.50
2022-08-22T16:37:03.371Z,1.50
2022-08-22T16:39:48.270Z,1.50
2022-08-22T16:42:23.994Z,1.52
2022-08-22T16:45:29.763Z,1.70
2022-08-22T16:47:58.448Z,1.67
2022-08-22T16:50:40.866Z,1.60
2022-08-22T16:53:30.394Z,1.20
2022-08-22T16:56:24.524Z,1.83
2022-08-22T16:59:23.555Z,1.40
2022-08-22T17:02:15.701Z,1.50
2022-08-22T17:05:19.639Z,1.30
2022-08-22T17:08:28.110Z,1.50
2022-08-22T17:11:27.931Z,1.50
2022-08-22T17:14:51.920Z,1.50
2022-08-22T17:17:59.025Z,1.25
2022-08-22T17:20:52.258Z,1.73
2022-08-22T17:23:38.889Z,1.30
2022-08-22T17:26:44.416Z,1.70
2022-08-22T17:29:34.293Z,1.60
2022-08-22T17:32:32.382Z,1.38
2022-08-22T17:35:32.787Z,1.60
2022-08-22T17:37:59.910Z,1.50
2022-08-22T17:41:15.566Z,1.45
2022-08-22T17:44:40.721Z,1.50
2022-08-22T17:47:27.785Z,1.70
2022-08-22T17:50:11.622Z,1.85
2022-08-22T17:52:52.356Z,1.70
2022-08-22T17:55:28.437Z,1.90
2022-08-22T17:58:35.698Z,1.90
2022-08-22T18:01:21.598Z,2.00
2022-08-22T18:04:01.323Z,1.60
2022-08-22T18:06:36.246Z,1.88
2022-08-22T18:09:19.093Z,1.63
2022-08-22T18:11:55.087Z,1.90
2022-08-22T18:14:51.237Z,1.38
2022-08-22T18:17:31.722Z,1.85
2022-08-22T18:20:14.698Z,1.73
2022-08-22T18:23:21.475Z,2.15
2022-08-22T18:26:35.926Z,1.58
2022-08-22T18:29:22.228Z,1.67
2022-08-22T18:32:08.960Z,1.92
2022-08-22T18:34:52.315Z,1.75
2022-08-22T18:37:30.650Z,1.80
2022-08-22T18:40:11.216Z,1.90
2022-08-22T18:42:56.879Z,2.60
2022-08-22T18:45:45.718Z,2.10
2022-08-22T18:48:29.978Z,2.08
2022-08-22T18:51:16.147Z,1.85
2022-08-22T18:54:17.417Z,2.30
2022-08-22T18:56:59.641Z,2.47
2022-08-22T19:00:16.765Z,1.98
2022-08-22T19:03:11.424Z,1.83
2022-08-22T19:06:39.629Z,2.20
2022-08-22T19:09:47.640Z,2.03
2022-08-22T19:12:41.622Z,2.10
2022-08-22T19:15:14.156Z,2.20
2022-08-22T19:18:37.906Z,1.95
2022-08-22T19:21:38.631Z,2.20
2022-08-22T19:24:34.567Z,2.20
2022-08-22T19:27:07.170Z,2.00
2022-08-22T19:29:33.984Z,2.05
2022-08-22T19:32:06.891Z,2.00
2022-08-22T19:34:47.134Z,2.35
2022-08-22T19:37:32.741Z,2.75
2022-08-22T19:40:07.786Z,2.67
2022-08-22T19:42:42.886Z,2.60
2022-08-22T19:45:27.063Z,2.17
2022-08-22T19:48:13.639Z,2.10
2022-08-22T19:50:43.232Z,2.33
2022-08-22T19:53:31.045Z,2.30
2022-08-22T19:56:34.067Z,2.70
2022-08-22T19:59:50.645Z,2.25
2022-08-22T20:02:57.793Z,2.47
2022-08-22T20:06:03.451Z,2.63
2022-08-22T20:08:46.963Z,2.30
2022-08-22T20:11:48.495Z,2.00
2022-08-22T20:14:34.459Z,2.00
2022-08-22T20:17:26.239Z,2.40
2022-08-22T20:23:15.368Z,2.08
2022-08-22T20:25:50.574Z,2.40
2022-08-22T20:28:46.048Z,2.70
2022-08-22T20:34:01.780Z,2.47
2022-08-22T20:36:29.646Z,2.85
2022-08-22T20:39:06.366Z,3.22
2022-08-22T20:41:47.553Z,2.72
2022-08-22T20:44:22.743Z,2.75
2022-08-22T20:47:00.260Z,2.67
2022-08-22T20:49:37.635Z,2.65
2022-08-22T20:52:11.490Z,3.55
2022-08-22T20:54:40.986Z,3.50
2022-08-22T20:57:17.089Z,2.83
2022-08-22T20:59:56.602Z,3.33
2022-08-22T21:02:40.089Z,3.05
2022-08-22T21:05:13.518Z,3.08
2022-08-22T21:07:45.314Z,3.33
2022-08-22T21:10:46.370Z,3.72
2022-08-22T21:13:32.747Z,3.25
2022-08-22T21:16:10.883Z,3.05
2022-08-22T21:18:48.822Z,3.75
2022-08-22T21:21:24.909Z,3.10
2022-08-22T21:24:01.179Z,3.50
2022-08-22T21:27:00.725Z,3.40
2022-08-22T21:29:32.964Z,3.40
2022-08-22T21:32:13.727Z,3.10
2022-08-22T21:34:47.964Z,4.03
2022-08-22T21:37:22.828Z,4.00
2022-08-22T21:42:33.198Z,3.40
2022-08-22T21:45:10.887Z,3.83
2022-08-22T21:47:41.967Z,4.10
2022-08-22T21:50:20.837Z,4.70
2022-08-22T21:52:53.847Z,4.57
2022-08-22T21:55:35.609Z,4.20
2022-08-22T21:58:06.284Z,4.85
2022-08-22T22:01:01.007Z,4.82
2022-08-22T22:03:38.180Z,5.13
2022-08-22T22:06:06.766Z,4.93
2022-08-22T22:08:34.107Z,4.50
2022-08-22T22:11:08.726Z,5.15
2022-08-22T22:13:36.350Z,4.03
2022-08-22T22:16:05.349Z,5.18
2022-08-22T22:18:34.175Z,4.93
2022-08-22T22:21:02.026Z,4.07
2022-08-22T22:23:29.260Z,4.50
2022-08-22T22:26:00.671Z,4.30
2022-08-22T22:28:36.845Z,3.88
2022-08-22T22:31:04.522Z,4.22
2022-08-22T22:33:35.317Z,4.55
2022-08-22T22:36:26.537Z,4.40
2022-08-22T22:38:55.038Z,4.22
2022-08-22T22:41:25.341Z,5.15
2022-08-22T22:43:56.001Z,4.80
2022-08-22T22:46:24.064Z,5.35
2022-08-22T22:48:50.904Z,4.35
2022-08-22T22:51:17.975Z,4.97
2022-08-22T22:53:45.494Z,5.10
2022-08-22T22:56:16.534Z,5.05
2022-08-22T22:58:46.203Z,4.70
2022-08-22T23:01:25.734Z,5.35
2022-08-22T23:04:03.195Z,4.97
2022-08-22T23:06:34.965Z,5.97
2022-08-22T23:09:02.367Z,5.13
2022-08-22T23:11:31.027Z,5.30
2022-08-22T23:13:58.026Z,5.60
2022-08-22T23:16:28.851Z,5.10
2022-08-22T23:18:56.304Z,4.75
2022-08-22T23:21:42.333Z,5.97
2022-08-22T23:24:11.436Z,5.30
2022-08-22T23:26:38.991Z,5.65
2022-08-22T23:29:06.881Z,5.63
2022-08-22T23:31:55.843Z,5.60
2022-08-22T23:34:34.546Z,5.63
2022-08-22T23:37:06.437Z,7.00
2022-08-22T23:39:35.892Z,5.40
2022-08-22T23:42:08.375Z,6.82
2022-08-22T23:44:40.691Z,6.00
2022-08-22T23:47:10.460Z,4.82
2022-08-22T23:49:39.723Z,6.43
2022-08-22T23:52:09.307Z,6.53
2022-08-22T23:54:36.391Z,6.75
2022-08-22T23:57:12.196Z,5.90
2022-08-22T23:59:46.473Z,6.78
